Linden, New Jersey
Current Conditions -  °F | °C
As of 10:35 PM on Saturday 22 Nov 2014 (Local Time) from KLDJ Reporting Station
Broken Clouds Broken Clouds  
Wind Chill: 42°   Ceiling: 12000
Heat Index: 46°   Visibility: 10mi
Dew Point: 22°   Wind: 7mph
Humidity: 40%   Direction: 270°W
Pressure: 30.24"   Gusts: NA
Location:  40.63°N, 74.25°W
Report Text: KLDJ 230335Z AUTO 27006KT 10SM BKN120 08/M05 A3024 RMK AO2 T00751055
Loading
Personal Weather Stations






























Interactive Weather Map New forecast layout! Learn more

10-Day Weather Forecast

Advertisements
Track Severe Weather on mobile